• Join FlightAware (Why Join?)
  • Login
  • US Flag 
10:06AM EDT


 

Airport Tracker/Info


-or-


 

Live Flight TrackerFlight Track Log ✈ DAL126 ✈ 15-Jul-2012 ✈ KJFK - LEMD / MAD

Flight Track Log - Related Links

Times and Time Zones

All times are in EDT time to prevent confusion due to time zone crossing. See the DAL126 flight status page for this flight to view local times or setup timezone preferences in your user account.

Time Position Orientation Groundspeed Altitude Reporting Facility
EDT Latitude Longitude Course Direction KTS MPH feet Rate Location/Type
09:02PM 40.5833 -73.8167 153° Southeast 204 235 2,200  Level New York TRACON
09:03PM 40.5333 -73.7833 105° East 286 329 4,900 2,700 Climbing New York TRACON
09:05PM 40.4794 -73.5269 125° Southeast 310 357 11,600 2,040 Climbing New York Center
09:06PM 40.4256 -73.4264 125° Southeast 353 406 12,000 960 Climbing New York Center
09:07PM 40.3594 -73.3042 126° Southeast 378 435 13,600 960 Climbing New York Center
09:08PM 40.2994 -73.1958 129° Southeast 392 451 14,000 480 Climbing New York Center
09:09PM 40.2247 -73.0736 127° Southeast 392 451 14,600 1,560 Climbing New York Center
09:10PM 40.1542 -72.9517 128° Southeast 404 465 17,200 2,520 Climbing New York Center
09:11PM 40.0792 -72.8272 128° Southeast 423 487 19,600 2,340 Climbing New York Center
09:12PM 40.0022 -72.6975 123° Southeast 436 502 21,900 2,040 Climbing New York Center
09:13PM 39.9336 -72.5578 89° East 452 520 23,800 1,860 Climbing New York Center
09:14PM 39.9364 -72.3817 76° East 444 511 25,600 1,740 Climbing New York Center
09:15PM 39.9656 -72.2228 87° East 478 550 27,300 1,860 Climbing New York Center
09:16PM 39.9739 -72.0414 86° East 483 556 29,400 1,980 Climbing New York Center
09:17PM 39.9842 -71.8600 86° East 489 563 31,300 1,800 Climbing New York Center
09:18PM 39.9939 -71.6842 87° East 495 570 33,000 1,560 Climbing New York Center
09:19PM 40.0017 -71.5053 88° East 495 570 34,500 960 Climbing New York Center
09:20PM 40.0067 -71.3267 86° East 495 570 35,000 240 Climbing New York Center
09:21PM 40.0158 -71.1506 85° East 495 570 35,000  Level New York Center
09:22PM 40.0267 -70.9717 88° East 489 563 35,000 540 Level New York Center
09:23PM 40.0311 -70.8011 87° East 483 556 36,100 960 Climbing New York Center
09:24PM 40.0375 -70.6275 87° East 478 550 37,000 420 Climbing New York Center
09:25PM 40.0433 -70.4622 86° East 478 550 37,000  Level New York Center
09:26PM 40.0514 -70.2939 88° East 468 539 37,000  Level New York Center
09:27PM 40.0569 -70.1231 88° East 468 539 37,000  Level New York Center
09:28PM 40.0619 -69.9522 88° East 468 539 37,000  Level New York Center
09:29PM 40.0669 -69.7733 87° East 478 550 37,000  Level New York Center
09:30PM 40.0739 -69.6022 88° East 478 550 37,000  Level New York Center
09:31PM 40.0783 -69.4231 89° East 478 550 37,000  Level New York Center
09:32PM 40.0806 -69.2442 87° East 478 550 37,000  Level New York Center
09:33PM 40.0867 -69.0731 88° East 478 550 37,000  Level New York Center
09:34PM 40.0903 -68.8994 89° East 483 556 37,000  Level New York Center
09:35PM 40.0936 -68.7256 88° East 478 550 37,000  Level New York Center
09:36PM 40.0969 -68.5572 89° East 473 544 37,000  Level New York Center
09:37PM 40.1000 -68.3836 88° East 473 544 37,000  Level New York Center
09:38PM 40.1050 -68.2125 90° East 473 544 37,000  Level New York Center
09:39PM 40.1053 -68.0414 88° East 473 544 37,000  Level New York Center
09:40PM 40.1097 -67.8731 88° East 473 544 37,000  Level New York Center
09:41PM 40.1139 -67.6992 90° East 473 544 37,000  Level New York Center
09:42PM 40.1131 -67.5119 89° East 473 544 37,000  Level New York Center
09:43PM 40.1144 -67.3383 89° East 479 551 37,000  Level New York Center
09:44PM 40.1158 -67.1644 90° East 479 551 37,000  Level New York Center
09:45PM 40.1167 -67.0000 79° East 469 540 37,000  Level New York Oceanic (ODAPS)
09:46PM 40.1333 -66.8833 79° East 469 540 37,000  Level New York Oceanic (ODAPS)
09:49PM 40.2167 -66.3167 79° East 467 537 37,000  Level New York Oceanic (ODAPS)
10:10PM 40.6833 -62.9333 81° East 457 526 37,000  Level New York Oceanic (ODAPS)
10:28PM 41.0000 -60.0000 78° East 468 539 37,000  Level New York Oceanic (ODAPS)
10:30PM 41.0667 -59.5667 80° East 472 543 37,000  Level New York Oceanic (ODAPS)
10:50PM 41.4833 -56.1833 81° East 461 531 37,000  Level New York Oceanic (ODAPS)
11:10PM 41.8167 -52.7833 84° East 459 528 37,000  Level New York Oceanic (ODAPS)
11:27PM 42.0000 -50.0000 72° East 482 555 37,000  Level New York Oceanic (ODAPS)
11:30PM 42.1667 -49.3167 72° East 492 566 37,000  Level New York Oceanic (ODAPS)
11:51PM 42.9500 -45.8167 74° East 499 574 37,000  Level New York Oceanic (ODAPS)
12:11AM 43.6667 -42.0667 78° East 505 581 37,000  Level New York Oceanic (ODAPS)
12:11AM 43.6894 -41.9234 77° East 499 574 37,000  Level FlightAware Transoceanic
12:12AM 43.7214 -41.7344 77° East 499 574 37,000  Level FlightAware Transoceanic
12:13AM 43.7532 -41.5453 77° East 499 574 37,000  Level FlightAware Transoceanic
12:14AM 43.7847 -41.3560 77° East 499 574 37,000  Level FlightAware Transoceanic
12:15AM 43.8158 -41.1665 77° East 499 574 37,000  Level FlightAware Transoceanic
12:18AM 43.9089 -40.5910 78° East 505 581 37,000  Level FlightAware Transoceanic
12:19AM 43.9383 -40.4026 78° East 505 581 37,000  Level FlightAware Transoceanic
12:20AM 43.9674 -40.2140 78° East 505 581 37,000  Level FlightAware Transoceanic
12:21AM 43.9962 -40.0252 85° East 505 581 37,000  Level FlightAware Transoceanic
12:22AM 44.0071 -39.8337 87° East 505 581 37,000  Level FlightAware Transoceanic
12:23AM 44.0151 -39.6418 87° East 505 581 37,000  Level FlightAware Transoceanic
12:24AM 44.0227 -39.4499 87° East 505 581 37,000  Level FlightAware Transoceanic
12:25AM 44.0300 -39.2579 87° East 505 581 37,000  Level FlightAware Transoceanic
12:26AM 44.0370 -39.0658 87° East 505 581 37,000  Level FlightAware Transoceanic
12:27AM 44.0437 -38.8737 87° East 505 581 37,000  Level FlightAware Transoceanic
12:28AM 44.0500 -38.6816 87° East 505 581 37,000  Level FlightAware Transoceanic
12:29AM 44.0560 -38.4894 88° East 505 581 37,000  Level FlightAware Transoceanic
12:30AM 44.0617 -38.2972 88° East 505 581 37,000  Level FlightAware Transoceanic
12:31AM 44.0671 -38.1049 88° East 505 581 37,000  Level FlightAware Transoceanic
12:32AM 44.0722 -37.9126 88° East 505 581 37,000  Level FlightAware Transoceanic
12:33AM 44.0769 -37.7203 88° East 505 581 37,000  Level FlightAware Transoceanic
12:34AM 44.0813 -37.5280 88° East 505 581 37,000  Level FlightAware Transoceanic
12:35AM 44.0854 -37.3356 88° East 505 581 37,000  Level FlightAware Transoceanic
12:36AM 44.0891 -37.1432 89° East 505 581 37,000  Level FlightAware Transoceanic
12:37AM 44.0926 -36.9507 89° East 505 581 37,000  Level FlightAware Transoceanic
12:38AM 44.0957 -36.7583 89° East 505 581 37,000  Level FlightAware Transoceanic
12:39AM 44.0985 -36.5658 89° East 505 581 37,000  Level FlightAware Transoceanic
12:40AM 44.1009 -36.3734 89° East 505 581 37,000  Level FlightAware Transoceanic
12:41AM 44.1031 -36.1809 89° East 505 581 37,000  Level FlightAware Transoceanic
12:42AM 44.1049 -35.9883 89° East 505 581 37,000  Level FlightAware Transoceanic
12:43AM 44.1064 -35.7958 89° East 505 581 37,000  Level FlightAware Transoceanic
12:44AM 44.1076 -35.6033 90° East 505 581 37,000  Level FlightAware Transoceanic
12:45AM 44.1084 -35.4108 90° East 505 581 37,000  Level FlightAware Transoceanic
12:46AM 44.1090 -35.2182 90° East 505 581 37,000  Level FlightAware Transoceanic
12:47AM 44.1092 -35.0257 90° East 505 581 37,000  Level FlightAware Transoceanic
12:48AM 44.1090 -34.8331 90° East 505 581 37,000  Level FlightAware Transoceanic
12:49AM 44.1086 -34.6406 90° East 505 581 37,000  Level FlightAware Transoceanic
12:50AM 44.1078 -34.4481 90° East 505 581 37,000  Level FlightAware Transoceanic
12:51AM 44.1067 -34.2555 91° East 505 581 37,000  Level FlightAware Transoceanic
12:52AM 44.1053 -34.0630 91° East 505 581 37,000  Level FlightAware Transoceanic
12:53AM 44.1036 -33.8705 91° East 505 581 37,000  Level FlightAware Transoceanic
12:54AM 44.1015 -33.6780 91° East 505 581 37,000  Level FlightAware Transoceanic
12:55AM 44.0992 -33.4855 91° East 505 581 37,000  Level FlightAware Transoceanic
12:56AM 44.0965 -33.2930 91° East 505 581 37,000  Level FlightAware Transoceanic
12:57AM 44.0934 -33.1006 91° East 505 581 37,000  Level FlightAware Transoceanic
12:58AM 44.0901 -32.9081 91° East 505 581 37,000  Level FlightAware Transoceanic
12:59AM 44.0864 -32.7157 92° East 505 581 37,000  Level FlightAware Transoceanic
01:00AM 44.0824 -32.5233 92° East 505 581 37,000  Level FlightAware Transoceanic
01:01AM 44.0781 -32.3310 92° East 505 581 37,000  Level FlightAware Transoceanic
01:02AM 44.0734 -32.1387 92° East 505 581 37,000  Level FlightAware Transoceanic
01:03AM 44.0685 -31.9464 92° East 505 581 37,000  Level FlightAware Transoceanic
01:04AM 44.0632 -31.7541 92° East 505 581 37,000  Level FlightAware Transoceanic
01:05AM 44.0576 -31.5619 92° East 505 581 37,000  Level FlightAware Transoceanic
01:06AM 44.0517 -31.3697 93° East 505 581 37,000  Level FlightAware Transoceanic
01:07AM 44.0454 -31.1775 93° East 505 581 37,000  Level FlightAware Transoceanic
01:08AM 44.0388 -30.9854 93° East 505 581 37,000  Level FlightAware Transoceanic
01:09AM 44.0319 -30.7934 93° East 505 581 37,000  Level FlightAware Transoceanic
01:10AM 44.0247 -30.6013 93° East 505 581 37,000  Level FlightAware Transoceanic
01:11AM 44.0172 -30.4094 93° East 505 581 37,000  Level FlightAware Transoceanic
01:12AM 44.0093 -30.2174 93° East 505 581 37,000  Level FlightAware Transoceanic
01:13AM 44.0011 -30.0256 86° East 505 581 37,000  Level FlightAware Transoceanic
01:14AM 44.0081 -29.8695 87° East  Level FlightAware Approximate
01:15AM 44.0148 -29.7133 87° East  Level FlightAware Approximate
01:16AM 44.0213 -29.5571 87° East  Level FlightAware Approximate
01:17AM 44.0276 -29.4009 87° East  Level FlightAware Approximate
01:18AM 44.0337 -29.2446 87° East  Level FlightAware Approximate
01:19AM 44.0396 -29.0884 87° East  Level FlightAware Approximate
01:20AM 44.0453 -28.9320 87° East  Level FlightAware Approximate
01:21AM 44.0507 -28.7757 87° East  Level FlightAware Approximate
01:22AM 44.0560 -28.6193 87° East  Level FlightAware Approximate
01:23AM 44.0610 -28.4629 87° East  Level FlightAware Approximate
01:24AM 44.0658 -28.3065 88° East  Level FlightAware Approximate
01:25AM 44.0704 -28.1500 88° East  Level FlightAware Approximate
01:26AM 44.0748 -27.9936 88° East  Level FlightAware Approximate
01:27AM 44.0790 -27.8371 88° East  Level FlightAware Approximate
01:28AM 44.0829 -27.6805 88° East  Level FlightAware Approximate
01:29AM 44.0867 -27.5240 88° East  Level FlightAware Approximate
01:30AM 44.0902 -27.3674 88° East  Level FlightAware Approximate
01:31AM 44.0935 -27.2109 88° East  Level FlightAware Approximate
01:32AM 44.0966 -27.0543 88° East  Level FlightAware Approximate
01:33AM 44.0995 -26.8977 89° East  Level FlightAware Approximate
01:34AM 44.1022 -26.7410 89° East  Level FlightAware Approximate
01:35AM 44.1047 -26.5844 89° East  Level FlightAware Approximate
01:36AM 44.1069 -26.4277 89° East  Level FlightAware Approximate
01:37AM 44.1090 -26.2711 89° East  Level FlightAware Approximate
01:38AM 44.1108 -26.1144 89° East  Level FlightAware Approximate
01:39AM 44.1124 -25.9577 89° East  Level FlightAware Approximate
01:40AM 44.1138 -25.8010 89° East  Level FlightAware Approximate
01:41AM 44.1149 -25.6443 89° East  Level FlightAware Approximate
01:42AM 44.1159 -25.4876 90° East  Level FlightAware Approximate
01:43AM 44.1167 -25.3309 90° East  Level FlightAware Approximate
01:44AM 44.1172 -25.1742 90° East  Level FlightAware Approximate
01:45AM 44.1175 -25.0175 90° East  Level FlightAware Approximate
01:46AM 44.1176 -24.8608 90° East  Level FlightAware Approximate
01:47AM 44.1175 -24.7041 90° East  Level FlightAware Approximate
01:48AM 44.1172 -24.5474 90° East  Level FlightAware Approximate
01:49AM 44.1167 -24.3907 90° East  Level FlightAware Approximate
01:50AM 44.1159 -24.2340 90° East  Level FlightAware Approximate
01:51AM 44.1149 -24.0773 91° East  Level FlightAware Approximate
01:52AM 44.1138 -23.9206 91° East  Level FlightAware Approximate
01:53AM 44.1124 -23.7639 91° East  Level FlightAware Approximate
01:54AM 44.1108 -23.6072 91° East  Level FlightAware Approximate
01:55AM 44.1089 -23.4505 91° East  Level FlightAware Approximate
01:56AM 44.1068 -23.2939 91° East  Level FlightAware Approximate
01:57AM 44.1045 -23.1372 91° East  Level FlightAware Approximate
01:58AM 44.1020 -22.9806 91° East  Level FlightAware Approximate
01:59AM 44.0992 -22.8240 91° East  Level FlightAware Approximate
02:00AM 44.0963 -22.6674 92° East  Level FlightAware Approximate
02:01AM 44.0931 -22.5108 92° East  Level FlightAware Approximate
02:02AM 44.0897 -22.3542 92° East  Level FlightAware Approximate
02:03AM 44.0861 -22.1976 92° East  Level FlightAware Approximate
02:04AM 44.0823 -22.0411 92° East  Level FlightAware Approximate
02:05AM 44.0783 -21.8846 92° East  Level FlightAware Approximate
02:06AM 44.0741 -21.7281 92° East  Level FlightAware Approximate
02:07AM 44.0696 -21.5716 92° East  Level FlightAware Approximate
02:08AM 44.0650 -21.4152 92° East  Level FlightAware Approximate
02:09AM 44.0601 -21.2588 93° East  Level FlightAware Approximate
02:10AM 44.0550 -21.1024 93° East  Level FlightAware Approximate
02:11AM 44.0497 -20.9460 93° East  Level FlightAware Approximate
02:12AM 44.0442 -20.7897 93° East  Level FlightAware Approximate
02:13AM 44.0384 -20.6334 93° East  Level FlightAware Approximate
02:14AM 44.0325 -20.4771 93° East  Level FlightAware Approximate
02:15AM 44.0263 -20.3208 93° East  Level FlightAware Approximate
02:16AM 44.0200 -20.1646 93° East  Level FlightAware Approximate
02:17AM 44.0134 -20.0084 93° East  Level FlightAware Approximate
02:18AM 44.0066 -19.8523 94° East  Level FlightAware Approximate
02:19AM 43.9996 -19.6962 94° East  Level FlightAware Approximate
02:20AM 43.9924 -19.5401 94° East  Level FlightAware Approximate
02:21AM 43.9850 -19.3841 94° East  Level FlightAware Approximate
02:22AM 43.9773 -19.2281 94° East  Level FlightAware Approximate
02:23AM 43.9695 -19.0721 94° East  Level FlightAware Approximate
02:24AM 43.9614 -18.9162 94° East  Level FlightAware Approximate
02:25AM 43.9531 -18.7604 94° East  Level FlightAware Approximate
02:26AM 43.9446 -18.6045 94° East  Level FlightAware Approximate
02:27AM 43.9359 -18.4488 94° East  Level FlightAware Approximate
02:28AM 43.9270 -18.2930 95° East  Level FlightAware Approximate
02:29AM 43.9179 -18.1374 95° East  Level FlightAware Approximate
02:30AM 43.9085 -17.9817 95° East  Level FlightAware Approximate
02:31AM 43.8990 -17.8261 95° East  Level FlightAware Approximate
02:32AM 43.8892 -17.6706 95° East  Level FlightAware Approximate
02:33AM 43.8792 -17.5151 95° East  Level FlightAware Approximate
02:34AM 43.8691 -17.3597 95° East  Level FlightAware Approximate
02:35AM 43.8587 -17.2043 95° East  Level FlightAware Approximate
02:36AM 43.8481 -17.0490 95° East  Level FlightAware Approximate
02:37AM 43.8373 -16.8937 96° East  Level FlightAware Approximate
02:38AM 43.8262 -16.7385 96° East  Level FlightAware Approximate
02:39AM 43.8150 -16.5833 96° East  Level FlightAware Approximate
02:40AM 43.8036 -16.4282 96° East  Level FlightAware Approximate
02:41AM 43.7919 -16.2732 96° East  Level FlightAware Approximate
02:42AM 43.7801 -16.1182 96° East  Level FlightAware Approximate
02:43AM 43.7680 -15.9633 96° East  Level FlightAware Approximate
02:44AM 43.7557 -15.8085 96° East  Level FlightAware Approximate
02:45AM 43.7432 -15.6537 96° East  Level FlightAware Approximate
02:46AM 43.7305 -15.4990 97° East  Level FlightAware Approximate
02:47AM 43.7176 -15.3443 97° East  Level FlightAware Approximate
02:48AM 43.7045 -15.1897 97° East  Level FlightAware Approximate
02:49AM 43.6912 -15.0352 97° East  Level FlightAware Approximate
02:50AM 43.6777 -14.8808 97° East  Level FlightAware Approximate
02:51AM 43.6639 -14.7264 97° East  Level FlightAware Approximate
02:52AM 43.6500 -14.5721 97° East  Level FlightAware Approximate
02:53AM 43.6358 -14.4179 97° East  Level FlightAware Approximate
02:54AM 43.6215 -14.2637 97° East  Level FlightAware Approximate
02:55AM 43.6069 -14.1096 97° East  Level FlightAware Approximate
02:56AM 43.5921 -13.9556 98° East  Level FlightAware Approximate
02:57AM 43.5771 -13.8017 98° East  Level FlightAware Approximate
02:58AM 43.5620 -13.6478 98° East  Level FlightAware Approximate
02:59AM 43.5466 -13.4940 98° East  Level FlightAware Approximate
03:00AM 43.5310 -13.3403 98° East  Level FlightAware Approximate
03:01AM 43.5151 -13.1867 98° East  Level FlightAware Approximate
03:02AM 43.4991 -13.0332 96° East  Level FlightAware Approximate
03:03AM 43.4871 -12.8794 109° East  Level FlightAware Approximate
03:04AM 43.4508 -12.7327 109° East  Level FlightAware Approximate
03:05AM 43.4142 -12.5862 109° East  Level FlightAware Approximate
03:06AM 43.3775 -12.4398 109° East  Level FlightAware Approximate
03:07AM 43.3406 -12.2936 109° East  Level FlightAware Approximate
03:08AM 43.3035 -12.1476 109° East  Level FlightAware Approximate
03:09AM 43.2663 -12.0018 109° East  Level FlightAware Approximate
03:10AM 43.2288 -11.8561 109° East  Level FlightAware Approximate
03:11AM 43.1912 -11.7107 110° East  Level FlightAware Approximate
03:12AM 43.1533 -11.5654 110° East  Level FlightAware Approximate
03:13AM 43.1153 -11.4203 110° East  Level FlightAware Approximate
03:14AM 43.0771 -11.2754 110° East  Level FlightAware Approximate
03:15AM 43.0387 -11.1306 110° East  Level FlightAware Approximate
03:16AM 43.0002 -10.9861 110° East  Level FlightAware Approximate
03:17AM 42.9614 -10.8417 110° East  Level FlightAware Approximate
03:18AM 42.9225 -10.6975 110° East  Level FlightAware Approximate
03:19AM 42.8834 -10.5535 110° East  Level FlightAware Approximate
03:20AM 42.8441 -10.4097 110° East  Level FlightAware Approximate
03:21AM 42.8047 -10.2660 111° Southeast  Level FlightAware Approximate
03:22AM 42.7650 -10.1226 111° Southeast  Level FlightAware Approximate
03:23AM 42.7252 -9.9793 111° Southeast  Level FlightAware Approximate
03:24AM 42.6852 -9.8362 111° Southeast  Level FlightAware Approximate
03:25AM 42.6450 -9.6933 111° Southeast  Level FlightAware Approximate
03:26AM 42.6040 -9.5509 111° Southeast  Level FlightAware Approximate
03:27AM 42.5628 -9.4087 112° Southeast  Level FlightAware Approximate
03:28AM 42.5215 -9.2667 114° Southeast  Level FlightAware Approximate
03:29AM 42.4763 -9.1269 114° Southeast  Level FlightAware Approximate
03:30AM 42.4312 -8.9879 114° Southeast  Level FlightAware Approximate
03:31AM 42.3859 -8.8491 114° Southeast  Level FlightAware Approximate
03:32AM 42.3405 -8.7106 114° Southeast  Level FlightAware Approximate
03:33AM 42.2949 -8.5722 114° Southeast  Level FlightAware Approximate
03:34AM 42.2491 -8.4340 114° Southeast  Level FlightAware Approximate
03:35AM 42.2031 -8.2960 114° Southeast  Level FlightAware Approximate
03:36AM 42.1570 -8.1582 114° Southeast  Level FlightAware Approximate
03:37AM 42.1107 -8.0206 114° Southeast  Level FlightAware Approximate
03:38AM 42.0643 -7.8833 115° Southeast  Level FlightAware Approximate
03:39AM 42.0177 -7.7461 115° Southeast  Level FlightAware Approximate
03:40AM 41.9709 -7.6091 115° Southeast  Level FlightAware Approximate
03:41AM 41.9240 -7.4723 115° Southeast  Level FlightAware Approximate
03:42AM 41.8769 -7.3358 115° Southeast  Level FlightAware Approximate
03:43AM 41.8296 -7.1994 115° Southeast  Level FlightAware Approximate
03:44AM 41.7822 -7.0632 115° Southeast  Level FlightAware Approximate
03:45AM 41.7346 -6.9273 115° Southeast  Level FlightAware Approximate
03:46AM 41.6869 -6.7915 115° Southeast  Level FlightAware Approximate
03:47AM 41.6390 -6.6559 115° Southeast  Level FlightAware Approximate
03:48AM 41.5909 -6.5206 115° Southeast  Level FlightAware Approximate
03:49AM 41.5427 -6.3854 116° Southeast  Level FlightAware Approximate
03:50AM 41.4944 -6.2504 116° Southeast  Level FlightAware Approximate
03:51AM 41.4458 -6.1157 116° Southeast  Level FlightAware Approximate
03:52AM 41.3971 -5.9811 116° Southeast  Level FlightAware Approximate
03:53AM 41.3483 -5.8468 116° Southeast  Level FlightAware Approximate
03:54AM 41.2993 -5.7126 116° Southeast  Level FlightAware Approximate
03:55AM 41.2501 -5.5787 116° Southeast  Level FlightAware Approximate
03:56AM 41.2008 -5.4449 116° Southeast  Level FlightAware Approximate
03:57AM 41.1514 -5.3114 116° Southeast  Level FlightAware Approximate
03:58AM 41.1017 -5.1780 116° Southeast  Level FlightAware Approximate
03:59AM 41.0520 -5.0449 116° Southeast  Level FlightAware Approximate
04:00AM 41.0020 -4.9119 117° Southeast  Level FlightAware Approximate
04:01AM 40.9520 -4.7792 117° Southeast  Level FlightAware Approximate
04:02AM 40.9017 -4.6467 117° Southeast  Level FlightAware Approximate
04:03AM 40.8514 -4.5143 117° Southeast  Level FlightAware Approximate
04:04AM 40.8008 -4.3822 117° Southeast  Level FlightAware Approximate
04:05AM 40.7501 -4.2502 117° Southeast  Level FlightAware Approximate
04:06AM 40.6993 -4.1185 97° East  Level FlightAware Approximate
04:07AM 40.6854 -3.9780 125° Southeast  Level FlightAware Approximate
04:08AM 40.6206 -3.8579 125° Southeast  Level FlightAware Approximate